createdAt,value
2019-05-14T00:02:12.381Z,91.90
2019-05-14T00:05:02.896Z,92.30
2019-05-14T00:07:52.999Z,92.50
2019-05-14T00:10:43.126Z,93.00
2019-05-14T00:13:32.883Z,93.50
2019-05-14T00:16:24.316Z,93.70
2019-05-14T00:19:13.757Z,93.90
2019-05-14T00:22:04.403Z,94.10
2019-05-14T00:24:54.356Z,94.10
2019-05-14T00:27:45.711Z,94.50
2019-05-14T00:30:39.359Z,95.00
2019-05-14T00:33:31.360Z,95.50
2019-05-14T00:36:21.551Z,95.90
2019-05-14T00:39:14.150Z,96.00
2019-05-14T00:42:03.218Z,96.20
2019-05-14T00:44:57.679Z,96.40
2019-05-14T00:47:43.851Z,96.40
2019-05-14T00:50:33.599Z,96.50
2019-05-14T00:53:24.679Z,97.00
2019-05-14T00:56:14.273Z,97.50
2019-05-14T00:59:03.992Z,97.80
2019-05-14T01:01:54.195Z,97.60
2019-05-14T01:04:44.384Z,98.00
2019-05-14T01:10:31.330Z,98.20
2019-05-14T01:13:21.889Z,98.30
2019-05-14T01:16:11.989Z,98.70
2019-05-14T01:19:02.278Z,98.90
2019-05-14T01:21:51.584Z,98.80
2019-05-14T01:24:41.746Z,98.90
2019-05-14T01:27:32.011Z,99.10
2019-05-14T01:30:21.847Z,99.00
2019-05-14T01:33:12.208Z,99.40
2019-05-14T01:36:02.237Z,99.20
2019-05-14T01:38:52.914Z,98.90
2019-05-14T01:41:42.839Z,98.80
2019-05-14T01:44:31.966Z,99.10
2019-05-14T01:47:21.909Z,99.40
2019-05-14T01:50:11.763Z,99.60
2019-05-14T01:53:01.376Z,99.70
2019-05-14T01:55:52.011Z,99.90
2019-05-14T01:58:43.720Z,99.90
2019-05-14T02:01:33.643Z,99.90
2019-05-14T02:04:24.379Z,99.90
2019-05-14T02:07:16.021Z,99.90
2019-05-14T02:10:06.042Z,99.90
2019-05-14T02:12:56.198Z,99.90
2019-05-14T02:15:45.032Z,99.90
2019-05-14T02:18:33.748Z,99.90
2019-05-14T02:21:24.318Z,99.90
2019-05-14T02:24:13.458Z,99.90
2019-05-14T02:27:03.250Z,99.90
2019-05-14T02:29:53.110Z,99.90
2019-05-14T02:32:42.151Z,99.90
2019-05-14T02:35:31.752Z,99.90
2019-05-14T02:38:29.895Z,99.90
2019-05-14T02:41:19.821Z,99.90
2019-05-14T02:44:10.225Z,99.90
2019-05-14T02:46:59.686Z,99.90
2019-05-14T02:49:50.195Z,99.90
2019-05-14T02:52:40.752Z,99.90
2019-05-14T02:55:30.419Z,99.90
2019-05-14T02:58:21.033Z,99.90
2019-05-14T03:01:11.204Z,99.90
2019-05-14T03:04:01.718Z,99.90
2019-05-14T03:06:51.551Z,99.90
2019-05-14T03:09:41.395Z,99.90
2019-05-14T03:12:31.649Z,99.90
2019-05-14T03:15:21.656Z,99.90
2019-05-14T03:18:11.487Z,99.90
2019-05-14T03:21:01.836Z,99.90
2019-05-14T03:23:51.428Z,99.90
2019-05-14T03:26:42.529Z,99.90
2019-05-14T03:29:32.695Z,99.90
2019-05-14T03:32:23.134Z,99.90
2019-05-14T03:35:14.454Z,99.90
2019-05-14T03:38:04.637Z,99.90
2019-05-14T03:40:54.758Z,99.90
2019-05-14T03:43:45.155Z,99.90
2019-05-14T03:46:45.666Z,99.90
2019-05-14T03:49:28.830Z,99.90
2019-05-14T03:52:20.123Z,99.90
2019-05-14T03:55:10.674Z,99.90
2019-05-14T03:58:01.693Z,99.90
2019-05-14T04:01:00.368Z,99.90
2019-05-14T04:03:50.540Z,99.90
2019-05-14T04:06:42.257Z,99.90
2019-05-14T04:09:33.485Z,99.90
2019-05-14T04:12:29.155Z,99.90
2019-05-14T04:15:19.269Z,99.90
2019-05-14T04:18:10.800Z,99.90
2019-05-14T04:21:00.991Z,99.90
2019-05-14T04:23:51.525Z,99.90
2019-05-14T04:26:58.373Z,99.90
2019-05-14T04:29:39.567Z,99.90
2019-05-14T04:32:31.093Z,99.90
2019-05-14T04:35:20.911Z,99.90
2019-05-14T04:38:10.423Z,99.90
2019-05-14T04:41:00.218Z,99.90
2019-05-14T04:43:50.706Z,99.90
2019-05-14T04:46:40.480Z,99.90
2019-05-14T04:49:29.582Z,99.90
2019-05-14T04:52:20.657Z,99.90
2019-05-14T04:55:11.064Z,99.90
2019-05-14T04:58:00.719Z,99.90
2019-05-14T05:00:50.549Z,99.90
2019-05-14T05:03:45.567Z,99.90
2019-05-14T05:06:34.966Z,99.90
2019-05-14T05:09:25.224Z,99.90
2019-05-14T05:12:15.178Z,99.90
2019-05-14T05:15:04.876Z,99.90
2019-05-14T05:17:53.953Z,99.90
2019-05-14T05:20:55.095Z,99.90
2019-05-14T05:23:44.313Z,99.90
2019-05-14T05:26:34.398Z,99.90
2019-05-14T05:29:29.883Z,99.90
2019-05-14T05:32:19.755Z,99.90
2019-05-14T05:35:09.703Z,99.90
2019-05-14T05:37:59.101Z,99.30
2019-05-14T05:40:49.258Z,98.80
2019-05-14T05:43:39.278Z,98.50
2019-05-14T05:46:28.765Z,98.20
2019-05-14T05:49:18.805Z,97.90
2019-05-14T05:52:09.219Z,97.20
2019-05-14T05:54:59.090Z,97.20
2019-05-14T05:57:49.241Z,96.50
2019-05-14T06:00:44.472Z,95.90
2019-05-14T06:03:34.143Z,95.90
2019-05-14T06:06:23.948Z,95.20
2019-05-14T06:09:14.028Z,94.80
2019-05-14T06:12:03.407Z,94.30
2019-05-14T06:14:53.701Z,93.80
2019-05-14T06:17:42.517Z,94.20
2019-05-14T06:23:28.469Z,93.80
2019-05-14T06:26:23.369Z,93.70
2019-05-14T06:29:13.894Z,93.50
2019-05-14T06:32:02.915Z,93.30
2019-05-14T06:34:51.791Z,92.50
2019-05-14T06:37:40.902Z,91.60
2019-05-14T06:40:30.698Z,91.40
2019-05-14T06:43:19.607Z,90.10
2019-05-14T06:46:09.472Z,87.20
2019-05-14T06:48:59.169Z,87.20
2019-05-14T06:51:49.099Z,84.90
2019-05-14T06:54:39.047Z,81.70
2019-05-14T06:57:28.811Z,79.10
2019-05-14T07:00:20.451Z,78.80
2019-05-14T07:03:10.438Z,79.80
2019-05-14T07:05:59.899Z,77.10
2019-05-14T07:08:52.622Z,75.50
2019-05-14T07:11:41.946Z,72.90
2019-05-14T07:14:32.402Z,72.00
2019-05-14T07:17:21.870Z,71.00
2019-05-14T07:20:10.647Z,68.00
2019-05-14T07:23:00.365Z,66.20
2019-05-14T07:25:50.156Z,61.60
2019-05-14T07:28:42.488Z,61.00
2019-05-14T07:31:32.406Z,60.50
2019-05-14T07:34:21.735Z,59.30
2019-05-14T07:37:11.007Z,58.10
2019-05-14T07:40:00.002Z,58.50
2019-05-14T07:42:49.922Z,59.20
2019-05-14T07:45:39.601Z,56.90
2019-05-14T07:48:30.714Z,55.70
2019-05-14T07:51:28.207Z,55.50
2019-05-14T07:54:19.521Z,53.50
2019-05-14T07:57:09.782Z,52.30
2019-05-14T07:59:59.072Z,52.70
2019-05-14T08:02:49.127Z,50.60
2019-05-14T08:05:38.927Z,52.40
2019-05-14T08:08:30.355Z,48.40
2019-05-14T08:11:20.964Z,46.00
2019-05-14T08:14:10.056Z,44.10
2019-05-14T08:16:59.773Z,44.50
2019-05-14T08:19:49.391Z,44.60
2019-05-14T08:22:39.776Z,44.80
2019-05-14T08:25:29.043Z,46.80
2019-05-14T08:28:21.208Z,45.50
2019-05-14T08:31:10.461Z,45.00
2019-05-14T08:34:04.689Z,46.80
2019-05-14T08:36:50.966Z,46.80
2019-05-14T08:39:40.916Z,45.30
2019-05-14T08:42:34.033Z,43.60
2019-05-14T08:45:21.313Z,44.30
2019-05-14T08:48:11.962Z,45.30
2019-05-14T08:51:00.737Z,42.10
2019-05-14T08:53:50.724Z,41.90
2019-05-14T08:56:40.060Z,41.30
2019-05-14T08:59:29.282Z,40.60
2019-05-14T09:02:19.731Z,40.50
2019-05-14T09:05:10.912Z,40.40
2019-05-14T09:08:01.055Z,40.80
2019-05-14T09:10:51.331Z,41.10
2019-05-14T09:13:41.232Z,41.60
2019-05-14T09:16:43.205Z,42.20
2019-05-14T09:19:21.505Z,43.60
2019-05-14T09:22:11.190Z,44.10
2019-05-14T09:25:01.226Z,44.50
2019-05-14T09:27:51.664Z,45.80
2019-05-14T09:30:41.372Z,46.20
2019-05-14T09:33:30.935Z,46.50
2019-05-14T09:36:24.156Z,45.60
2019-05-14T09:39:12.154Z,45.90
2019-05-14T09:42:01.291Z,43.80
2019-05-14T09:44:51.542Z,44.00
2019-05-14T09:47:40.961Z,43.60
2019-05-14T09:50:29.972Z,43.10
2019-05-14T09:53:19.935Z,44.10
2019-05-14T09:56:09.938Z,44.50
2019-05-14T09:58:59.751Z,44.00
2019-05-14T10:01:50.717Z,44.40
2019-05-14T10:04:40.367Z,45.40
2019-05-14T10:07:29.952Z,46.00
2019-05-14T10:10:20.115Z,46.40
2019-05-14T10:13:10.739Z,46.80
2019-05-14T10:16:01.323Z,47.30
2019-05-14T10:18:52.872Z,46.30
2019-05-14T10:21:41.313Z,46.80
2019-05-14T10:24:31.866Z,44.80
2019-05-14T10:27:22.012Z,43.30
2019-05-14T10:30:12.030Z,43.60
2019-05-14T10:33:09.227Z,43.90
2019-05-14T10:35:51.854Z,44.80
2019-05-14T10:38:41.379Z,45.70
2019-05-14T10:41:30.832Z,45.60
2019-05-14T10:44:20.042Z,46.40
2019-05-14T10:47:09.641Z,45.80
2019-05-14T10:49:59.155Z,46.20
2019-05-14T10:52:49.126Z,46.80
2019-05-14T10:55:38.812Z,47.10
2019-05-14T10:58:29.295Z,47.00
2019-05-14T11:01:22.474Z,46.00
2019-05-14T11:04:10.871Z,45.80
2019-05-14T11:07:00.370Z,46.30
2019-05-14T11:09:50.279Z,46.80
2019-05-14T11:12:40.300Z,47.10
2019-05-14T11:15:30.389Z,46.90
2019-05-14T11:18:20.031Z,46.80
2019-05-14T11:21:27.526Z,47.10
2019-05-14T11:24:02.019Z,47.20
2019-05-14T11:26:51.970Z,47.00
2019-05-14T11:29:42.419Z,46.80
2019-05-14T11:32:32.327Z,46.40
2019-05-14T11:35:22.136Z,46.30
2019-05-14T11:38:28.016Z,46.20
2019-05-14T11:41:01.892Z,46.30
2019-05-14T11:47:04.897Z,46.10
2019-05-14T11:49:54.668Z,46.00
2019-05-14T11:52:43.730Z,46.00
2019-05-14T11:55:33.367Z,45.30
2019-05-14T11:58:24.200Z,45.20
2019-05-14T12:01:14.430Z,44.20
2019-05-14T12:04:04.812Z,43.30
2019-05-14T12:06:55.484Z,43.50
2019-05-14T12:09:45.673Z,44.20
2019-05-14T12:12:35.230Z,44.90
2019-05-14T12:15:25.450Z,43.60
2019-05-14T12:18:14.747Z,42.80
2019-05-14T12:21:08.755Z,41.00
2019-05-14T12:24:06.216Z,42.50
2019-05-14T12:26:58.440Z,41.50
2019-05-14T12:29:49.844Z,42.00
2019-05-14T12:32:39.580Z,42.50
2019-05-14T12:35:29.871Z,42.90
2019-05-14T12:38:19.695Z,43.20
2019-05-14T12:41:09.473Z,43.60
2019-05-14T12:43:59.188Z,43.90
2019-05-14T12:46:58.531Z,41.90
2019-05-14T12:49:48.327Z,41.60
2019-05-14T12:52:39.239Z,41.90
2019-05-14T12:55:29.952Z,42.60
2019-05-14T12:58:20.568Z,42.70
2019-05-14T13:01:10.834Z,43.80
2019-05-14T13:04:00.536Z,43.60
2019-05-14T13:06:50.631Z,43.70
2019-05-14T13:09:41.099Z,43.10
2019-05-14T13:12:30.757Z,43.40
2019-05-14T13:15:22.118Z,43.20
2019-05-14T13:18:11.562Z,43.00
2019-05-14T13:21:02.978Z,42.50
2019-05-14T13:23:52.742Z,43.30
2019-05-14T13:26:49.633Z,43.60
2019-05-14T13:29:39.708Z,42.90
2019-05-14T13:32:28.935Z,43.70
2019-05-14T13:35:19.625Z,44.30
2019-05-14T13:38:14.336Z,45.40
2019-05-14T13:41:02.009Z,46.00
2019-05-14T13:43:51.487Z,46.40
2019-05-14T13:46:42.411Z,46.90
2019-05-14T13:49:31.883Z,47.80
2019-05-14T13:52:21.621Z,48.50
2019-05-14T13:55:11.464Z,48.20
2019-05-14T13:58:01.589Z,47.70
2019-05-14T14:00:52.035Z,48.10
2019-05-14T14:03:47.918Z,47.10
2019-05-14T14:06:33.731Z,47.00
2019-05-14T14:09:23.479Z,47.10
2019-05-14T14:12:13.293Z,47.70
2019-05-14T14:15:03.047Z,47.40
2019-05-14T14:17:53.771Z,46.60
2019-05-14T14:20:43.710Z,46.70
2019-05-14T14:23:35.116Z,47.30
2019-05-14T14:26:25.590Z,47.80
2019-05-14T14:29:18.481Z,48.70
2019-05-14T14:32:11.091Z,49.50
2019-05-14T14:34:58.947Z,49.40
2019-05-14T14:37:49.403Z,47.60
2019-05-14T14:40:39.800Z,47.70
2019-05-14T14:43:29.865Z,48.20
2019-05-14T14:46:20.846Z,48.70
2019-05-14T14:49:11.146Z,48.90
2019-05-14T14:52:01.242Z,47.80
2019-05-14T14:54:50.401Z,48.00
2019-05-14T14:57:45.300Z,47.50
2019-05-14T15:00:30.915Z,48.00
2019-05-14T15:03:21.207Z,47.70
2019-05-14T15:06:11.427Z,45.80
2019-05-14T15:09:01.431Z,45.20
2019-05-14T15:11:53.357Z,44.90
2019-05-14T15:14:43.519Z,44.80
2019-05-14T15:17:32.871Z,43.60
2019-05-14T15:20:22.347Z,42.20
2019-05-14T15:23:11.597Z,40.50
2019-05-14T15:26:01.883Z,41.30
2019-05-14T15:28:51.515Z,40.60
2019-05-14T15:31:42.346Z,40.40
2019-05-14T15:34:31.051Z,39.40
2019-05-14T15:37:20.078Z,39.50
2019-05-14T15:40:09.317Z,39.10
2019-05-14T15:42:58.952Z,39.80
2019-05-14T15:45:49.037Z,40.40
2019-05-14T15:48:39.634Z,41.70
2019-05-14T15:51:30.431Z,42.40
2019-05-14T15:54:36.134Z,42.80
2019-05-14T15:57:11.714Z,43.90
2019-05-14T16:00:08.704Z,45.20
2019-05-14T16:03:03.537Z,46.10
2019-05-14T16:05:53.695Z,46.30
2019-05-14T16:08:44.081Z,47.40
2019-05-14T16:11:34.262Z,48.10
2019-05-14T16:14:24.070Z,48.10
2019-05-14T16:17:15.723Z,48.00
2019-05-14T16:20:08.755Z,48.40
2019-05-14T16:22:58.985Z,48.50
2019-05-14T16:25:49.277Z,48.40
2019-05-14T16:28:39.916Z,48.50
2019-05-14T16:31:31.608Z,49.50
2019-05-14T16:34:21.455Z,50.10
2019-05-14T16:37:11.315Z,49.80
2019-05-14T16:40:01.446Z,50.20
2019-05-14T16:42:51.748Z,50.90
2019-05-14T16:45:40.740Z,51.90
2019-05-14T16:48:30.894Z,52.70
2019-05-14T16:51:27.999Z,55.50
2019-05-14T16:54:18.228Z,57.20
2019-05-14T16:57:10.948Z,58.60
2019-05-14T17:00:05.539Z,60.60
2019-05-14T17:02:59.011Z,63.30
2019-05-14T17:05:50.013Z,67.60
2019-05-14T17:08:40.301Z,69.70
2019-05-14T17:11:31.160Z,71.90
2019-05-14T17:14:20.765Z,72.50
2019-05-14T17:17:09.636Z,74.40
2019-05-14T17:19:59.922Z,74.20
2019-05-14T17:22:49.927Z,74.00
2019-05-14T17:25:39.287Z,74.30
2019-05-14T17:28:29.215Z,73.70
2019-05-14T17:31:19.263Z,74.20
2019-05-14T17:34:08.787Z,73.20
2019-05-14T17:36:59.425Z,72.70
2019-05-14T17:39:50.191Z,71.90
2019-05-14T17:42:40.150Z,71.80
2019-05-14T17:45:29.611Z,72.50
2019-05-14T17:48:20.002Z,73.40
2019-05-14T17:51:10.037Z,73.10
2019-05-14T17:53:59.252Z,74.00
2019-05-14T17:56:49.083Z,75.10
2019-05-14T17:59:39.892Z,74.70
2019-05-14T18:02:29.567Z,75.20
2019-05-14T18:05:19.221Z,76.00
2019-05-14T18:08:09.379Z,76.40
2019-05-14T18:11:01.729Z,76.10
2019-05-14T18:13:50.375Z,76.70
2019-05-14T18:16:39.289Z,76.60
2019-05-14T18:19:29.654Z,76.60
2019-05-14T18:22:20.030Z,76.60
2019-05-14T18:25:12.983Z,76.80
2019-05-14T18:28:02.143Z,77.20
2019-05-14T18:30:51.466Z,77.80
2019-05-14T18:33:41.371Z,77.70
2019-05-14T18:36:31.415Z,77.90
2019-05-14T18:39:21.319Z,77.70
2019-05-14T18:42:11.274Z,78.70
2019-05-14T18:45:00.926Z,79.00
2019-05-14T18:47:58.950Z,79.30
2019-05-14T18:50:48.440Z,79.40
2019-05-14T18:53:38.665Z,79.50
2019-05-14T18:56:30.123Z,80.10
2019-05-14T18:59:21.240Z,80.60
2019-05-14T19:02:12.165Z,81.20
2019-05-14T19:05:02.856Z,81.60
2019-05-14T19:07:52.432Z,82.10
2019-05-14T19:10:42.131Z,81.90
2019-05-14T19:13:31.521Z,82.70
2019-05-14T19:16:20.838Z,83.20
2019-05-14T19:19:11.013Z,83.50
2019-05-14T19:24:58.634Z,84.80
2019-05-14T19:27:48.772Z,85.20
2019-05-14T19:30:39.563Z,85.00
2019-05-14T19:33:28.972Z,86.70
2019-05-14T19:36:19.274Z,87.90
2019-05-14T19:39:10.365Z,88.60
2019-05-14T19:41:59.841Z,89.40
2019-05-14T19:44:48.966Z,89.90
2019-05-14T19:47:40.105Z,90.10
2019-05-14T19:50:29.607Z,90.20
2019-05-14T19:53:20.218Z,90.60
2019-05-14T19:56:09.612Z,90.60
2019-05-14T19:58:59.461Z,91.00
2019-05-14T20:01:50.567Z,91.30
2019-05-14T20:04:41.079Z,91.50
2019-05-14T20:07:31.618Z,91.70
2019-05-14T20:10:22.100Z,92.10
2019-05-14T20:13:11.269Z,92.50
2019-05-14T20:16:00.859Z,92.60
2019-05-14T20:18:49.907Z,92.80
2019-05-14T20:21:45.054Z,93.30
2019-05-14T20:24:34.589Z,93.50
2019-05-14T20:27:24.328Z,93.90
2019-05-14T20:30:18.559Z,94.10
2019-05-14T20:33:08.584Z,94.40
2019-05-14T20:35:59.152Z,94.60
2019-05-14T20:38:48.994Z,95.00
2019-05-14T20:41:38.772Z,95.30
2019-05-14T20:44:27.978Z,95.40
2019-05-14T20:47:18.967Z,95.80
2019-05-14T20:50:09.181Z,96.00
2019-05-14T20:53:00.134Z,96.30
2019-05-14T20:55:49.274Z,96.60
2019-05-14T20:58:40.209Z,97.00
2019-05-14T21:01:29.723Z,97.20
2019-05-14T21:04:20.328Z,97.70
2019-05-14T21:07:10.214Z,97.60
2019-05-14T21:09:59.655Z,97.90
2019-05-14T21:12:54.874Z,97.80
2019-05-14T21:15:44.736Z,97.90
2019-05-14T21:18:35.571Z,97.80
2019-05-14T21:21:28.111Z,97.80
2019-05-14T21:24:18.153Z,97.90
2019-05-14T21:27:09.295Z,98.20
2019-05-14T21:29:59.768Z,98.10
2019-05-14T21:32:49.830Z,98.30
2019-05-14T21:35:39.343Z,98.10
2019-05-14T21:38:29.138Z,98.20
2019-05-14T21:41:20.450Z,98.00
2019-05-14T21:44:09.894Z,98.30
2019-05-14T21:46:59.431Z,98.50
2019-05-14T21:49:50.051Z,98.60
2019-05-14T21:52:42.337Z,98.60
2019-05-14T21:55:30.595Z,98.80
2019-05-14T21:58:20.876Z,98.70
2019-05-14T22:01:11.665Z,98.70
2019-05-14T22:04:01.862Z,98.90
2019-05-14T22:06:52.211Z,99.20
2019-05-14T22:09:41.624Z,99.20
2019-05-14T22:12:31.182Z,99.20
2019-05-14T22:15:20.705Z,99.50
2019-05-14T22:18:16.923Z,99.40
2019-05-14T22:21:01.114Z,99.60
2019-05-14T22:23:50.830Z,99.60
2019-05-14T22:29:37.906Z,99.40
2019-05-14T22:35:23.314Z,99.30
2019-05-14T22:38:14.460Z,99.30
2019-05-14T22:41:04.077Z,99.50
2019-05-14T22:43:56.714Z,99.80
2019-05-14T22:46:44.679Z,99.90
2019-05-14T22:49:35.023Z,99.90
2019-05-14T22:52:24.829Z,99.90
2019-05-14T22:55:14.744Z,99.90
2019-05-14T22:58:04.452Z,99.90
2019-05-14T23:01:13.622Z,99.90
2019-05-14T23:03:49.803Z,99.90
2019-05-14T23:06:39.301Z,99.90
2019-05-14T23:09:29.231Z,99.90
2019-05-14T23:12:18.935Z,99.90
2019-05-14T23:15:09.609Z,99.90
2019-05-14T23:17:58.972Z,99.90
2019-05-14T23:20:49.335Z,99.90
2019-05-14T23:23:39.390Z,99.90
2019-05-14T23:26:29.258Z,99.90
2019-05-14T23:29:18.933Z,99.90
2019-05-14T23:32:08.210Z,99.90
2019-05-14T23:34:58.553Z,99.90
2019-05-14T23:37:49.022Z,99.90
2019-05-14T23:40:38.936Z,99.90
2019-05-14T23:43:29.076Z,99.90
2019-05-14T23:46:18.596Z,99.90
2019-05-14T23:49:08.876Z,99.90
2019-05-14T23:51:59.676Z,99.90
2019-05-14T23:54:49.858Z,99.90
2019-05-14T23:57:39.267Z,99.90
